createdAt,value
2022-09-25T00:00:05.897Z,23.00
2022-09-25T00:01:05.967Z,27.90
2022-09-25T00:02:05.928Z,22.80
2022-09-25T00:03:05.865Z,26.10
2022-09-25T00:04:05.922Z,29.70
2022-09-25T00:05:05.840Z,30.40
2022-09-25T00:06:05.830Z,28.20
2022-09-25T00:07:05.818Z,23.60
2022-09-25T00:08:05.816Z,25.00
2022-09-25T00:09:09.791Z,29.80
2022-09-25T00:10:05.785Z,27.00
2022-09-25T00:11:05.772Z,30.30
2022-09-25T00:12:05.763Z,32.70
2022-09-25T00:13:05.859Z,24.80
2022-09-25T00:14:05.855Z,24.40
2022-09-25T00:15:05.733Z,23.40
2022-09-25T00:16:05.721Z,24.60
2022-09-25T00:17:05.769Z,23.30
2022-09-25T00:18:05.697Z,25.40
2022-09-25T00:19:05.683Z,24.60
2022-09-25T00:20:05.673Z,25.40
2022-09-25T00:21:05.659Z,30.20
2022-09-25T00:22:05.652Z,31.90
2022-09-25T00:23:05.638Z,25.90
2022-09-25T00:24:05.769Z,29.10
2022-09-25T00:25:05.616Z,29.40
2022-09-25T00:26:05.607Z,28.90
2022-09-25T00:27:05.594Z,23.60
2022-09-25T00:28:05.586Z,24.90
2022-09-25T00:29:05.601Z,27.70
2022-09-25T00:30:05.560Z,23.90
2022-09-25T00:31:05.643Z,28.50
2022-09-25T00:32:05.537Z,26.90
2022-09-25T00:33:05.531Z,28.20
2022-09-25T00:34:05.622Z,32.50
2022-09-25T00:35:05.506Z,25.60
2022-09-25T00:36:05.497Z,28.20
2022-09-25T00:37:05.481Z,27.40
2022-09-25T00:38:05.474Z,25.30
2022-09-25T00:39:05.462Z,31.00
2022-09-25T00:40:05.454Z,27.90
2022-09-25T00:41:05.438Z,27.50
2022-09-25T00:42:05.427Z,29.80
2022-09-25T00:43:05.416Z,29.00
2022-09-25T00:44:05.481Z,26.60
2022-09-25T00:45:05.416Z,33.10
2022-09-25T00:46:05.447Z,30.50
2022-09-25T00:47:05.372Z,26.10
2022-09-25T00:48:05.359Z,26.50
2022-09-25T00:49:05.346Z,33.10
2022-09-25T00:50:05.340Z,40.30
2022-09-25T00:51:05.327Z,30.00
2022-09-25T00:52:05.316Z,28.80
2022-09-25T00:53:05.306Z,24.80
2022-09-25T00:54:05.300Z,29.40
2022-09-25T00:55:05.282Z,37.10
2022-09-25T00:56:05.273Z,32.50
2022-09-25T00:57:05.266Z,33.20
2022-09-25T00:58:05.250Z,32.40
2022-09-25T00:59:05.237Z,38.70
2022-09-25T01:01:05.262Z,46.30
2022-09-25T01:02:05.278Z,33.80
2022-09-25T01:03:05.192Z,41.30
2022-09-25T01:04:05.192Z,34.00
2022-09-25T01:05:05.181Z,33.30
2022-09-25T01:06:05.163Z,40.00
2022-09-25T01:07:05.147Z,42.00
2022-09-25T01:08:05.138Z,32.70
2022-09-25T01:09:05.127Z,33.30
2022-09-25T01:10:05.117Z,34.40
2022-09-25T01:11:05.105Z,35.20
2022-09-25T01:12:05.103Z,37.70
2022-09-25T01:13:05.086Z,30.40
2022-09-25T01:14:05.075Z,37.10
2022-09-25T01:15:05.059Z,37.10
2022-09-25T01:16:05.051Z,34.00
2022-09-25T01:17:05.129Z,33.10
2022-09-25T01:18:05.030Z,34.70
2022-09-25T01:19:05.017Z,34.30
2022-09-25T01:20:05.006Z,37.40
2022-09-25T01:21:04.998Z,37.30
2022-09-25T01:22:04.986Z,37.80
2022-09-25T01:23:04.972Z,33.80
2022-09-25T01:24:04.964Z,40.30
2022-09-25T01:25:04.959Z,35.40
2022-09-25T01:26:04.941Z,33.20
2022-09-25T01:27:04.928Z,38.30
2022-09-25T01:28:04.916Z,37.30
2022-09-25T01:29:04.905Z,38.90
2022-09-25T01:30:04.894Z,33.20
2022-09-25T01:31:04.945Z,35.00
2022-09-25T01:32:04.874Z,31.60
2022-09-25T01:33:04.882Z,36.70
2022-09-25T01:34:04.849Z,44.20
2022-09-25T01:35:04.839Z,35.20
2022-09-25T01:36:04.829Z,36.00
2022-09-25T01:37:04.815Z,43.10
2022-09-25T01:38:04.806Z,43.60
2022-09-25T01:39:04.793Z,35.20
2022-09-25T01:40:04.823Z,34.60
2022-09-25T01:41:04.769Z,30.20
2022-09-25T01:42:04.768Z,42.40
2022-09-25T01:43:04.757Z,41.00
2022-09-25T01:44:04.741Z,34.30
2022-09-25T01:45:04.726Z,42.80
2022-09-25T01:46:04.759Z,41.80
2022-09-25T01:47:04.705Z,32.80
2022-09-25T01:48:04.698Z,36.30
2022-09-25T01:49:04.706Z,28.10
2022-09-25T01:50:04.682Z,32.20
2022-09-25T01:51:04.672Z,32.80
2022-09-25T01:52:04.649Z,30.00
2022-09-25T01:53:04.643Z,34.30
2022-09-25T01:54:04.705Z,30.20
2022-09-25T01:55:04.616Z,35.50
2022-09-25T01:56:04.608Z,37.00
2022-09-25T01:57:04.592Z,28.30
2022-09-25T01:58:04.584Z,27.90
2022-09-25T01:59:04.571Z,28.00
2022-09-25T02:00:04.559Z,24.90
2022-09-25T02:01:04.580Z,32.60
2022-09-25T02:02:04.624Z,26.90
2022-09-25T02:03:04.527Z,30.90
2022-09-25T02:04:04.590Z,29.40
2022-09-25T02:05:04.619Z,27.70
2022-09-25T02:06:04.493Z,31.80
2022-09-25T02:07:04.479Z,39.20
2022-09-25T02:08:04.470Z,29.80
2022-09-25T02:09:04.458Z,19.90
2022-09-25T02:10:04.449Z,26.00
2022-09-25T02:11:04.437Z,27.30
2022-09-25T02:12:04.427Z,29.50
2022-09-25T02:13:04.415Z,30.70
2022-09-25T02:14:04.405Z,32.00
2022-09-25T02:15:04.393Z,25.10
2022-09-25T02:16:04.380Z,22.80
2022-09-25T02:17:04.408Z,23.60
2022-09-25T02:18:04.361Z,29.10
2022-09-25T02:19:04.350Z,26.30
2022-09-25T02:20:04.338Z,26.00
2022-09-25T02:21:04.348Z,35.00
2022-09-25T02:22:04.316Z,29.90
2022-09-25T02:23:04.302Z,34.60
2022-09-25T02:24:04.429Z,29.60
2022-09-25T02:25:04.283Z,31.70
2022-09-25T02:26:04.323Z,27.70
2022-09-25T02:27:04.308Z,31.00
2022-09-25T02:28:04.299Z,25.00
2022-09-25T02:29:04.285Z,30.30
2022-09-25T02:30:04.327Z,28.50
2022-09-25T02:31:04.386Z,21.90
2022-09-25T02:32:04.358Z,26.70
2022-09-25T02:33:04.343Z,28.90
2022-09-25T02:34:04.275Z,27.90
2022-09-25T02:35:04.171Z,31.60
2022-09-25T02:36:04.160Z,27.60
2022-09-25T02:37:04.170Z,26.20
2022-09-25T02:38:04.136Z,30.80
2022-09-25T02:39:04.125Z,30.10
2022-09-25T02:40:04.114Z,30.30
2022-09-25T02:41:04.102Z,35.50
2022-09-25T02:42:04.091Z,28.00
2022-09-25T02:43:04.082Z,29.00
2022-09-25T02:44:04.146Z,22.50
2022-09-25T02:45:04.061Z,25.40
2022-09-25T02:46:04.078Z,26.50
2022-09-25T02:47:04.040Z,22.10
2022-09-25T02:48:04.029Z,28.80
2022-09-25T02:49:04.019Z,26.00
2022-09-25T02:50:04.026Z,22.40
2022-09-25T02:51:03.995Z,24.90
2022-09-25T02:52:03.985Z,22.20
2022-09-25T02:53:04.079Z,22.90
2022-09-25T02:54:03.978Z,27.00
2022-09-25T02:55:03.977Z,23.10
2022-09-25T02:56:03.937Z,27.40
2022-09-25T02:57:04.515Z,25.30
2022-09-25T02:58:03.917Z,21.70
2022-09-25T02:59:03.904Z,24.00
2022-09-25T03:00:03.896Z,24.70
2022-09-25T03:01:03.943Z,22.50
2022-09-25T03:02:04.007Z,21.00
2022-09-25T03:03:03.875Z,26.20
2022-09-25T03:04:03.871Z,30.20
2022-09-25T03:05:03.849Z,22.90
2022-09-25T03:06:03.823Z,22.60
2022-09-25T03:07:03.816Z,19.80
2022-09-25T03:08:03.801Z,20.90
2022-09-25T03:09:03.817Z,22.00
2022-09-25T03:10:03.781Z,33.30
2022-09-25T03:11:03.773Z,23.00
2022-09-25T03:12:03.759Z,21.90
2022-09-25T03:13:03.750Z,26.50
2022-09-25T03:14:03.804Z,21.50
2022-09-25T03:15:03.726Z,22.70
2022-09-25T03:16:03.757Z,26.30
2022-09-25T03:17:03.705Z,25.70
2022-09-25T03:18:03.693Z,24.10
2022-09-25T03:19:03.687Z,26.40
2022-09-25T03:20:03.672Z,24.20
2022-09-25T03:21:03.662Z,22.50
2022-09-25T03:22:03.655Z,19.10
2022-09-25T03:23:03.638Z,32.50
2022-09-25T03:24:03.652Z,24.50
2022-09-25T03:25:03.750Z,20.70
2022-09-25T03:26:03.604Z,23.30
2022-09-25T03:27:03.595Z,22.30
2022-09-25T03:28:03.581Z,20.00
2022-09-25T03:29:03.573Z,23.00
2022-09-25T03:30:03.565Z,22.90
2022-09-25T03:31:03.683Z,21.50
2022-09-25T03:32:03.539Z,24.00
2022-09-25T03:33:03.529Z,27.60
2022-09-25T03:34:03.560Z,20.80
2022-09-25T03:35:03.506Z,23.30
2022-09-25T03:36:03.495Z,21.80
2022-09-25T03:37:03.484Z,26.40
2022-09-25T03:38:03.470Z,20.20
2022-09-25T03:39:03.463Z,21.40
2022-09-25T03:40:03.447Z,23.60
2022-09-25T03:41:03.478Z,24.70
2022-09-25T03:42:03.429Z,23.10
2022-09-25T03:43:27.835Z,16.50
2022-09-25T03:44:27.825Z,16.40
2022-09-25T03:45:27.813Z,22.30
2022-09-25T03:46:27.919Z,24.40
2022-09-25T03:47:27.791Z,27.20
2022-09-25T03:48:27.777Z,28.60
2022-09-25T03:49:27.771Z,20.30
2022-09-25T03:50:27.762Z,28.90
2022-09-25T03:51:27.746Z,21.20
2022-09-25T03:52:27.733Z,20.20
2022-09-25T03:53:27.723Z,18.40
2022-09-25T03:54:27.710Z,20.80
2022-09-25T03:55:27.699Z,20.70
2022-09-25T03:56:27.713Z,24.00
2022-09-25T03:57:27.679Z,24.70
2022-09-25T03:58:27.665Z,22.10
2022-09-25T03:59:27.655Z,21.50
2022-09-25T04:00:27.645Z,27.20
2022-09-25T04:01:27.751Z,18.60
2022-09-25T04:02:27.687Z,19.60
2022-09-25T04:03:27.611Z,22.60
2022-09-25T04:04:27.598Z,21.10
2022-09-25T04:05:27.588Z,29.80
2022-09-25T04:06:27.577Z,27.80
2022-09-25T04:07:27.565Z,23.00
2022-09-25T04:08:27.551Z,19.00
2022-09-25T04:09:27.547Z,30.50
2022-09-25T04:10:27.529Z,22.70
2022-09-25T04:11:27.519Z,22.20
2022-09-25T04:12:27.534Z,26.10
2022-09-25T04:13:27.495Z,20.90
2022-09-25T04:14:27.483Z,25.80
2022-09-25T04:15:27.474Z,23.40
2022-09-25T04:16:27.563Z,23.40
2022-09-25T04:17:27.451Z,27.40
2022-09-25T04:18:27.442Z,21.10
2022-09-25T04:19:27.429Z,22.00
2022-09-25T04:20:27.419Z,20.50
2022-09-25T04:21:27.411Z,21.30
2022-09-25T04:22:27.394Z,25.00
2022-09-25T04:23:27.383Z,28.60
2022-09-25T04:24:27.370Z,21.00
2022-09-25T04:25:27.361Z,22.90
2022-09-25T04:26:27.346Z,20.70
2022-09-25T04:27:27.339Z,18.20
2022-09-25T04:28:27.431Z,22.50
2022-09-25T04:29:27.314Z,26.40
2022-09-25T04:30:27.303Z,19.90
2022-09-25T04:31:27.412Z,15.90
2022-09-25T04:32:27.280Z,17.50
2022-09-25T04:33:27.269Z,26.40
2022-09-25T04:34:27.257Z,25.30
2022-09-25T04:35:27.250Z,20.40
2022-09-25T04:36:27.233Z,25.00
2022-09-25T04:37:27.223Z,24.40
2022-09-25T04:38:27.219Z,31.40
2022-09-25T04:39:27.203Z,27.60
2022-09-25T04:40:27.267Z,23.40
2022-09-25T04:41:27.188Z,23.30
2022-09-25T04:42:27.184Z,23.90
2022-09-25T04:43:27.199Z,20.20
2022-09-25T04:44:27.204Z,21.90
2022-09-25T04:45:27.163Z,20.70
2022-09-25T04:46:27.249Z,18.20
2022-09-25T04:47:27.109Z,27.40
2022-09-25T04:48:27.102Z,18.10
2022-09-25T04:49:27.088Z,27.00
2022-09-25T04:50:27.076Z,19.70
2022-09-25T04:51:27.066Z,18.50
2022-09-25T04:52:27.054Z,18.90
2022-09-25T04:53:27.046Z,30.70
2022-09-25T04:54:27.032Z,27.90
2022-09-25T04:55:27.026Z,20.70
2022-09-25T04:56:27.013Z,19.00
2022-09-25T04:57:53.604Z,15.90
2022-09-25T04:58:28.015Z,28.60
2022-09-25T04:59:26.977Z,24.50
2022-09-25T05:00:26.989Z,23.80
2022-09-25T05:01:26.992Z,25.10
2022-09-25T05:02:27.128Z,19.00
2022-09-25T05:03:27.048Z,16.00
2022-09-25T05:04:26.919Z,14.90
2022-09-25T05:05:26.910Z,23.10
2022-09-25T05:06:26.897Z,24.50
2022-09-25T05:07:26.887Z,19.20
2022-09-25T05:08:26.878Z,19.30
2022-09-25T05:09:26.875Z,17.40
2022-09-25T05:10:26.853Z,18.50
2022-09-25T05:11:26.845Z,17.30
2022-09-25T05:12:26.831Z,32.20
2022-09-25T05:13:26.821Z,20.90
2022-09-25T05:14:26.809Z,17.40
2022-09-25T05:15:26.807Z,22.00
2022-09-25T05:16:26.862Z,23.90
2022-09-25T05:17:26.779Z,23.70
2022-09-25T05:18:26.775Z,18.90
2022-09-25T05:19:26.754Z,19.70
2022-09-25T05:20:26.742Z,24.30
2022-09-25T05:21:26.733Z,24.90
2022-09-25T05:22:26.721Z,26.00
2022-09-25T05:23:26.711Z,29.20
2022-09-25T05:24:26.793Z,20.90
2022-09-25T05:25:26.704Z,21.00
2022-09-25T05:26:26.675Z,19.20
2022-09-25T05:27:26.665Z,23.60
2022-09-25T05:28:26.667Z,40.50
2022-09-25T05:29:26.647Z,35.50
2022-09-25T05:30:26.641Z,28.70
2022-09-25T05:31:26.645Z,28.70
2022-09-25T05:32:26.634Z,26.90
2022-09-25T05:33:26.648Z,24.20
2022-09-25T05:34:26.609Z,23.00
2022-09-25T05:35:26.576Z,30.40
2022-09-25T05:36:26.644Z,28.70
2022-09-25T05:37:26.566Z,28.40
2022-09-25T05:38:26.545Z,32.50
2022-09-25T05:39:26.536Z,37.10
2022-09-25T05:40:26.561Z,33.00
2022-09-25T05:41:26.511Z,43.50
2022-09-25T05:42:26.499Z,38.40
2022-09-25T05:43:26.486Z,41.30
2022-09-25T05:44:26.477Z,34.20
2022-09-25T05:45:26.464Z,49.10
2022-09-25T05:46:26.527Z,44.70
2022-09-25T05:47:26.440Z,39.00
2022-09-25T05:48:26.537Z,39.40
2022-09-25T05:49:26.423Z,40.90
2022-09-25T05:50:26.410Z,40.50
2022-09-25T05:51:26.395Z,44.90
2022-09-25T05:52:26.386Z,45.00
2022-09-25T05:53:26.372Z,41.40
2022-09-25T05:54:26.363Z,34.40
2022-09-25T05:55:26.351Z,40.90
2022-09-25T05:56:26.339Z,35.20
2022-09-25T05:57:26.326Z,34.60
2022-09-25T05:58:26.319Z,40.60
2022-09-25T05:59:26.302Z,39.00
2022-09-25T06:00:26.293Z,40.50
2022-09-25T06:01:26.418Z,37.40
2022-09-25T06:02:26.324Z,34.30
2022-09-25T06:03:26.259Z,38.60
2022-09-25T06:04:26.276Z,38.10
2022-09-25T06:05:26.236Z,42.80
2022-09-25T06:06:27.667Z,35.20
2022-09-25T06:07:26.217Z,37.80
2022-09-25T06:08:26.215Z,36.50
2022-09-25T06:09:26.190Z,40.70
2022-09-25T06:10:26.257Z,34.60
2022-09-25T06:11:26.169Z,35.60
2022-09-25T06:12:26.157Z,36.50
2022-09-25T06:13:26.149Z,37.70
2022-09-25T06:14:26.139Z,33.60
2022-09-25T06:15:26.122Z,39.90
2022-09-25T06:16:26.222Z,37.30
2022-09-25T06:17:26.100Z,38.20
2022-09-25T06:18:26.089Z,40.90
2022-09-25T06:19:26.075Z,36.00
2022-09-25T06:20:26.088Z,35.80
2022-09-25T06:21:26.051Z,38.40
2022-09-25T06:22:26.044Z,41.80
2022-09-25T06:23:26.036Z,47.40
2022-09-25T06:24:26.020Z,32.20
2022-09-25T06:25:26.005Z,38.00
2022-09-25T06:26:25.997Z,36.00
2022-09-25T06:27:25.990Z,32.40
2022-09-25T06:28:25.977Z,43.70
2022-09-25T06:29:25.965Z,29.50
2022-09-25T06:30:25.980Z,49.30
2022-09-25T06:31:25.975Z,39.70
2022-09-25T06:32:25.929Z,34.60
2022-09-25T06:33:25.917Z,28.10
2022-09-25T06:34:25.905Z,32.40
2022-09-25T06:35:25.901Z,35.00
2022-09-25T06:36:27.404Z,42.50
2022-09-25T06:37:25.869Z,38.30
2022-09-25T06:38:25.866Z,39.10
2022-09-25T06:39:25.847Z,34.80
2022-09-25T06:40:25.941Z,33.50
2022-09-25T06:41:25.826Z,36.00
2022-09-25T06:42:25.815Z,31.40
2022-09-25T06:43:25.805Z,38.60
2022-09-25T06:44:25.796Z,38.80
2022-09-25T06:45:25.784Z,33.20
2022-09-25T06:46:25.834Z,37.90
2022-09-25T06:47:27.003Z,29.80
2022-09-25T06:48:25.749Z,29.90
2022-09-25T06:49:25.736Z,36.20
2022-09-25T06:50:25.768Z,27.40
2022-09-25T06:51:25.714Z,33.20
2022-09-25T06:52:25.738Z,26.10
2022-09-25T06:53:25.696Z,26.30
2022-09-25T06:54:25.678Z,27.10
2022-09-25T06:55:25.670Z,34.30
2022-09-25T06:56:25.660Z,38.90
2022-09-25T06:57:25.644Z,26.90
2022-09-25T06:58:25.637Z,27.50
2022-09-25T06:59:25.623Z,33.20
2022-09-25T07:00:25.713Z,26.30
2022-09-25T07:01:25.694Z,31.10
2022-09-25T07:02:25.801Z,23.30
2022-09-25T07:03:25.599Z,29.20
2022-09-25T07:04:25.566Z,23.20
2022-09-25T07:05:25.563Z,23.80
2022-09-25T07:06:25.546Z,23.20
2022-09-25T07:07:25.530Z,22.30
2022-09-25T07:08:25.542Z,25.10
2022-09-25T07:09:25.509Z,30.10
2022-09-25T07:10:25.497Z,28.00
2022-09-25T07:11:25.488Z,26.70
2022-09-25T07:12:25.478Z,20.80
2022-09-25T07:13:25.471Z,25.40
2022-09-25T07:14:25.495Z,17.10
2022-09-25T07:15:25.441Z,17.30
2022-09-25T07:16:25.552Z,21.80
2022-09-25T07:17:25.418Z,22.70
2022-09-25T07:18:25.408Z,21.10
2022-09-25T07:19:27.750Z,17.40
2022-09-25T07:20:25.384Z,20.10
2022-09-25T07:21:25.375Z,20.30
2022-09-25T07:22:25.362Z,22.50
2022-09-25T07:23:25.356Z,21.10
2022-09-25T07:24:25.372Z,17.50
2022-09-25T07:25:25.370Z,18.20
2022-09-25T07:26:25.324Z,19.70
2022-09-25T07:27:25.310Z,15.20
2022-09-25T07:28:25.296Z,12.10
2022-09-25T07:29:25.284Z,17.50
2022-09-25T07:30:25.273Z,14.60
2022-09-25T07:31:25.333Z,12.40
2022-09-25T07:32:25.253Z,17.00
2022-09-25T07:33:25.239Z,15.60
2022-09-25T07:34:25.230Z,16.00
2022-09-25T07:35:25.224Z,17.20
2022-09-25T07:36:25.207Z,13.80
2022-09-25T07:37:25.202Z,15.40
2022-09-25T07:38:25.184Z,13.00
2022-09-25T07:39:25.172Z,11.50
2022-09-25T07:40:25.414Z,12.70
2022-09-25T07:41:25.149Z,15.70
2022-09-25T07:42:25.138Z,16.50
2022-09-25T07:43:25.126Z,12.40
2022-09-25T07:44:29.029Z,16.50
2022-09-25T07:45:25.108Z,12.00
2022-09-25T07:46:25.237Z,14.10
2022-09-25T07:47:25.101Z,11.40
2022-09-25T07:48:25.077Z,13.10
2022-09-25T07:49:25.061Z,10.20
2022-09-25T07:50:25.052Z,10.10
2022-09-25T07:51:25.038Z,10.10
2022-09-25T07:52:25.030Z,12.30
2022-09-25T07:53:25.017Z,11.80
2022-09-25T07:54:25.008Z,10.40
2022-09-25T07:55:24.995Z,12.10
2022-09-25T07:56:25.008Z,12.40
2022-09-25T07:57:24.973Z,12.40
2022-09-25T07:58:24.987Z,12.90
2022-09-25T07:59:24.963Z,13.00
2022-09-25T08:00:24.939Z,13.30
2022-09-25T08:01:25.014Z,12.90
2022-09-25T08:02:25.062Z,10.50
2022-09-25T08:03:24.905Z,11.50
2022-09-25T08:04:24.895Z,10.30
2022-09-25T08:05:24.884Z,8.30
2022-09-25T08:06:24.874Z,8.50
2022-09-25T08:07:24.860Z,8.60
2022-09-25T08:08:24.852Z,11.80
2022-09-25T08:09:24.846Z,8.30
2022-09-25T08:10:24.849Z,9.70
2022-09-25T08:11:24.816Z,10.50
2022-09-25T08:12:24.835Z,10.20
2022-09-25T08:13:24.797Z,8.60
2022-09-25T08:14:26.959Z,8.80
2022-09-25T08:15:24.775Z,8.70
2022-09-25T08:16:24.823Z,9.00
2022-09-25T08:17:24.750Z,14.80
2022-09-25T08:18:24.741Z,6.90
2022-09-25T08:19:24.727Z,7.40
2022-09-25T08:20:24.725Z,9.30
2022-09-25T08:21:24.727Z,7.30
2022-09-25T08:22:24.697Z,6.60
2022-09-25T08:23:24.687Z,9.20
2022-09-25T08:24:24.675Z,9.20
2022-09-25T08:25:24.664Z,6.10
2022-09-25T08:26:24.657Z,8.80
2022-09-25T08:27:24.643Z,8.80
2022-09-25T08:28:24.654Z,8.70
2022-09-25T08:29:24.624Z,5.90
2022-09-25T08:30:24.611Z,9.90
2022-09-25T08:31:24.669Z,6.30
2022-09-25T08:32:24.606Z,9.30
2022-09-25T08:33:24.581Z,7.60
2022-09-25T08:34:41.683Z,10.10
2022-09-25T08:35:25.579Z,7.40
2022-09-25T08:36:24.547Z,6.70
2022-09-25T08:37:24.534Z,8.80
2022-09-25T08:38:24.521Z,9.20
2022-09-25T08:39:24.513Z,8.10
2022-09-25T08:40:24.587Z,8.70
2022-09-25T08:41:24.507Z,8.20
2022-09-25T08:42:24.477Z,8.00
2022-09-25T08:43:24.481Z,9.40
2022-09-25T08:44:24.480Z,10.50
2022-09-25T08:45:24.445Z,8.10
2022-09-25T08:46:24.526Z,8.00
2022-09-25T08:47:24.423Z,8.60
2022-09-25T08:48:24.417Z,9.10
2022-09-25T08:49:24.399Z,9.70
2022-09-25T08:50:24.391Z,6.80
2022-09-25T08:51:24.384Z,10.50
2022-09-25T08:52:24.369Z,8.10
2022-09-25T08:53:24.483Z,9.70
2022-09-25T08:54:24.346Z,12.20
2022-09-25T08:55:24.334Z,7.30
2022-09-25T08:56:24.324Z,10.00
2022-09-25T08:57:24.309Z,12.50
2022-09-25T08:58:24.301Z,9.00
2022-09-25T08:59:24.290Z,7.60
2022-09-25T09:00:24.304Z,4.90
2022-09-25T09:01:24.329Z,12.10
2022-09-25T09:02:24.296Z,10.60
2022-09-25T09:03:24.256Z,7.00
2022-09-25T09:04:24.249Z,10.20
2022-09-25T09:05:24.222Z,6.50
2022-09-25T09:06:24.212Z,10.30
2022-09-25T09:07:27.168Z,8.10
2022-09-25T09:08:24.191Z,7.70
2022-09-25T09:09:24.176Z,6.50
2022-09-25T09:10:24.168Z,9.50
2022-09-25T09:11:24.162Z,7.20
2022-09-25T09:12:24.147Z,6.40
2022-09-25T09:13:24.132Z,8.10
2022-09-25T09:14:24.122Z,9.40
2022-09-25T09:15:24.179Z,5.60
2022-09-25T09:16:24.157Z,5.70
2022-09-25T09:17:24.088Z,7.80
2022-09-25T09:18:24.085Z,8.00
2022-09-25T09:19:24.065Z,7.80
2022-09-25T09:20:24.056Z,8.80
2022-09-25T09:21:24.041Z,7.70
2022-09-25T09:22:24.034Z,7.20
2022-09-25T09:23:24.020Z,7.10
2022-09-25T09:24:24.010Z,6.00
2022-09-25T09:25:23.999Z,10.90
2022-09-25T09:26:23.991Z,6.10
2022-09-25T09:27:23.980Z,8.10
2022-09-25T09:28:23.983Z,9.20
2022-09-25T09:29:23.987Z,8.60
2022-09-25T09:30:23.947Z,6.60
2022-09-25T09:31:23.989Z,6.80
2022-09-25T09:32:23.952Z,6.40
2022-09-25T09:33:23.914Z,7.30
2022-09-25T09:34:36.165Z,7.20
2022-09-25T09:35:23.890Z,5.60
2022-09-25T09:36:23.881Z,6.30
2022-09-25T09:37:23.868Z,6.30
2022-09-25T09:38:23.856Z,11.30
2022-09-25T09:39:23.843Z,5.60
2022-09-25T09:40:23.888Z,7.10
2022-09-25T09:41:23.832Z,7.20
2022-09-25T09:42:23.811Z,6.70
2022-09-25T09:43:23.800Z,7.20
2022-09-25T09:44:23.791Z,6.30
2022-09-25T09:45:23.776Z,5.20
2022-09-25T09:46:23.780Z,9.40
2022-09-25T09:47:23.758Z,7.40
2022-09-25T09:48:23.769Z,6.00
2022-09-25T09:49:23.733Z,8.00
2022-09-25T09:50:23.725Z,4.70
2022-09-25T09:51:23.712Z,6.40
2022-09-25T09:52:23.701Z,7.80
2022-09-25T09:53:23.718Z,4.70
2022-09-25T09:54:23.703Z,7.30
2022-09-25T09:55:23.668Z,6.40
2022-09-25T09:56:23.661Z,6.50
2022-09-25T09:57:23.646Z,6.90
2022-09-25T09:58:23.636Z,8.40
2022-09-25T09:59:23.628Z,8.70
2022-09-25T10:00:23.615Z,4.90
2022-09-25T10:01:49.346Z,6.50
2022-09-25T10:02:24.799Z,4.30
2022-09-25T10:03:23.791Z,7.30
2022-09-25T10:04:23.592Z,4.60
2022-09-25T10:05:23.572Z,6.60
2022-09-25T10:06:23.560Z,6.90
2022-09-25T10:07:23.538Z,6.10
2022-09-25T10:08:23.527Z,7.60
2022-09-25T10:09:23.518Z,6.90
2022-09-25T10:10:23.514Z,5.70
2022-09-25T10:11:23.493Z,7.30
2022-09-25T10:12:23.483Z,6.60
2022-09-25T10:13:23.480Z,6.40
2022-09-25T10:14:23.459Z,6.40
2022-09-25T10:15:23.456Z,7.80
2022-09-25T10:16:23.439Z,7.60
2022-09-25T10:17:23.441Z,7.10
2022-09-25T10:18:23.466Z,8.50
2022-09-25T10:19:23.418Z,7.60
2022-09-25T10:20:23.421Z,7.60
2022-09-25T10:21:23.382Z,9.60
2022-09-25T10:22:23.376Z,6.70
2022-09-25T10:23:23.360Z,8.70
2022-09-25T10:24:23.349Z,7.60
2022-09-25T10:25:23.340Z,5.70
2022-09-25T10:26:23.326Z,8.60
2022-09-25T10:27:23.316Z,7.50
2022-09-25T10:28:23.314Z,7.60
2022-09-25T10:29:23.310Z,6.90
2022-09-25T10:30:23.283Z,10.60
2022-09-25T10:31:23.299Z,8.60
2022-09-25T10:32:23.261Z,6.50
2022-09-25T10:33:23.252Z,7.80
2022-09-25T10:34:23.236Z,8.80
2022-09-25T10:35:23.227Z,8.60
2022-09-25T10:36:23.238Z,9.80
2022-09-25T10:37:23.206Z,10.80
2022-09-25T10:38:23.193Z,10.70
2022-09-25T10:39:42.830Z,10.10
2022-09-25T10:40:23.260Z,9.10
2022-09-25T10:41:23.163Z,6.50
2022-09-25T10:42:23.148Z,10.70
2022-09-25T10:43:23.139Z,10.00
2022-09-25T10:44:23.128Z,6.20
2022-09-25T10:45:23.116Z,9.90
2022-09-25T10:46:23.127Z,7.90
2022-09-25T10:47:23.092Z,5.80
2022-09-25T10:48:23.079Z,10.70
2022-09-25T10:49:23.075Z,8.60
2022-09-25T10:50:23.057Z,9.30
2022-09-25T10:51:23.070Z,10.80
2022-09-25T10:52:23.078Z,7.20
2022-09-25T10:53:23.026Z,7.50
2022-09-25T10:54:23.011Z,10.20
2022-09-25T10:55:23.003Z,8.60
2022-09-25T10:56:22.987Z,7.80
2022-09-25T10:57:22.983Z,9.60
2022-09-25T10:58:22.964Z,10.50
2022-09-25T10:59:23.076Z,7.90
2022-09-25T11:00:22.948Z,8.80
2022-09-25T11:01:23.018Z,8.90
2022-09-25T11:02:23.077Z,6.10
2022-09-25T11:03:22.923Z,6.70
2022-09-25T11:04:22.903Z,6.90
2022-09-25T11:05:22.885Z,7.40
2022-09-25T11:06:22.871Z,6.00
2022-09-25T11:07:22.861Z,6.60
2022-09-25T11:08:22.876Z,5.50
2022-09-25T11:09:22.851Z,5.90
2022-09-25T11:10:22.831Z,6.90
2022-09-25T11:11:22.815Z,7.30
2022-09-25T11:12:22.810Z,8.20
2022-09-25T11:13:22.801Z,9.30
2022-09-25T11:14:22.787Z,9.00
2022-09-25T11:15:22.790Z,7.10
2022-09-25T11:16:22.871Z,4.80
2022-09-25T11:17:22.750Z,4.70
2022-09-25T11:18:22.742Z,7.90
2022-09-25T11:19:22.727Z,4.30
2022-09-25T11:20:22.749Z,4.80
2022-09-25T11:21:22.704Z,6.50
2022-09-25T11:22:22.693Z,6.30
2022-09-25T11:23:22.682Z,7.60
2022-09-25T11:24:22.698Z,6.00
2022-09-25T11:25:22.662Z,6.90
2022-09-25T11:26:22.649Z,8.50
2022-09-25T11:27:22.652Z,9.80
2022-09-25T11:28:22.657Z,7.50
2022-09-25T11:29:22.634Z,9.90
2022-09-25T11:30:22.605Z,6.70
2022-09-25T11:31:22.628Z,9.10
2022-09-25T11:32:22.582Z,10.90
2022-09-25T11:33:22.571Z,6.40
2022-09-25T11:34:22.560Z,8.50
2022-09-25T11:35:22.567Z,9.10
2022-09-25T11:36:22.537Z,5.70
2022-09-25T11:37:22.528Z,9.30
2022-09-25T11:38:22.517Z,4.30
2022-09-25T11:39:22.553Z,6.80
2022-09-25T11:40:22.618Z,7.30
2022-09-25T11:41:22.487Z,6.30
2022-09-25T11:42:22.475Z,7.20
2022-09-25T11:43:22.463Z,9.60
2022-09-25T11:44:22.459Z,8.60
2022-09-25T11:45:22.461Z,8.90
2022-09-25T11:46:22.505Z,6.30
2022-09-25T11:47:22.418Z,7.20
2022-09-25T11:48:22.406Z,10.40
2022-09-25T11:49:22.395Z,6.80
2022-09-25T11:50:22.392Z,7.80
2022-09-25T11:51:22.406Z,8.10
2022-09-25T11:52:22.408Z,8.80
2022-09-25T11:53:22.349Z,8.00
2022-09-25T11:54:34.729Z,7.10
2022-09-25T11:55:23.353Z,5.80
2022-09-25T11:56:22.337Z,8.20
2022-09-25T11:57:22.307Z,8.40
2022-09-25T11:58:22.291Z,8.70
2022-09-25T11:59:22.284Z,7.20
2022-09-25T12:00:22.270Z,8.80
2022-09-25T12:01:22.311Z,7.40
2022-09-25T12:02:22.366Z,6.50
2022-09-25T12:03:22.259Z,7.30
2022-09-25T12:04:22.227Z,8.40
2022-09-25T12:05:22.217Z,8.80
2022-09-25T12:06:22.207Z,6.30
2022-09-25T12:07:22.195Z,7.20
2022-09-25T12:08:22.182Z,8.90
2022-09-25T12:09:22.173Z,8.90
2022-09-25T12:10:22.160Z,8.70
2022-09-25T12:11:22.152Z,8.60
2022-09-25T12:12:22.245Z,10.30
2022-09-25T12:13:22.135Z,8.20
2022-09-25T12:14:22.135Z,7.80
2022-09-25T12:15:22.111Z,6.10
2022-09-25T12:16:22.157Z,5.70
2022-09-25T12:17:22.084Z,7.90
2022-09-25T12:18:22.074Z,7.00
2022-09-25T12:19:22.062Z,5.80
2022-09-25T12:20:22.055Z,7.20
2022-09-25T12:21:22.044Z,10.30
2022-09-25T12:22:22.030Z,7.10
2022-09-25T12:23:22.021Z,13.60
2022-09-25T12:24:22.005Z,8.60
2022-09-25T12:25:22.019Z,6.00
2022-09-25T12:26:21.998Z,9.40
2022-09-25T12:27:21.980Z,7.70
2022-09-25T12:28:22.039Z,8.10
2022-09-25T12:29:22.006Z,10.30
2022-09-25T12:30:22.055Z,9.90
2022-09-25T12:31:21.969Z,9.20
2022-09-25T12:32:21.916Z,9.70
2022-09-25T12:33:21.908Z,6.50
2022-09-25T12:34:21.894Z,8.30
2022-09-25T12:35:22.035Z,7.20
2022-09-25T12:36:21.904Z,8.60
2022-09-25T12:37:26.778Z,10.10
2022-09-25T12:38:21.850Z,11.60
2022-09-25T12:39:21.849Z,7.20
2022-09-25T12:40:21.946Z,7.20
2022-09-25T12:41:21.820Z,7.20
2022-09-25T12:42:21.806Z,5.90
2022-09-25T12:43:21.799Z,7.40
2022-09-25T12:44:27.141Z,7.80
2022-09-25T12:45:21.794Z,5.60
2022-09-25T12:46:21.888Z,8.40
2022-09-25T12:47:21.822Z,6.20
2022-09-25T12:48:21.869Z,6.20
2022-09-25T12:49:21.758Z,7.20
2022-09-25T12:50:21.879Z,9.50
2022-09-25T12:51:21.718Z,6.00
2022-09-25T12:52:21.701Z,8.10
2022-09-25T12:53:21.685Z,8.10
2022-09-25T12:54:21.673Z,7.20
2022-09-25T12:55:21.665Z,9.60
2022-09-25T12:56:21.650Z,8.00
2022-09-25T12:57:21.651Z,7.70
2022-09-25T12:58:21.642Z,7.40
2022-09-25T12:59:21.637Z,8.30
2022-09-25T13:00:21.630Z,7.60
2022-09-25T13:01:21.719Z,5.30
2022-09-25T13:02:21.668Z,7.60